sensor_id;sensor_type;location;lat;lon;timestamp;P1;durP1;ratioP1;P2;durP2;ratioP2
41530;SDS011;58990;46.284;13.126;2022-09-28T00:01:07;0.47;;;0.47;;
41530;SDS011;58990;46.284;13.126;2022-09-28T00:03:45;0.35;;;0.28;;
41530;SDS011;58990;46.284;13.126;2022-09-28T00:06:12;2.50;;;0.20;;
41530;SDS011;58990;46.284;13.126;2022-09-28T00:08:40;0.20;;;0.20;;
41530;SDS011;58990;46.284;13.126;2022-09-28T00:11:06;0.20;;;0.20;;
41530;SDS011;58990;46.284;13.126;2022-09-28T00:13:32;0.20;;;0.20;;
41530;SDS011;58990;46.284;13.126;2022-09-28T00:15:59;0.32;;;0.32;;
41530;SDS011;58990;46.284;13.126;2022-09-28T00:23:37;0.38;;;0.35;;
41530;SDS011;58990;46.284;13.126;2022-09-28T00:26:24;0.30;;;0.30;;
41530;SDS011;58990;46.284;13.126;2022-09-28T00:28:51;0.30;;;0.30;;
41530;SDS011;58990;46.284;13.126;2022-09-28T00:31:27;5.78;;;0.40;;
41530;SDS011;58990;46.284;13.126;2022-09-28T00:33:55;0.20;;;0.20;;
41530;SDS011;58990;46.284;13.126;2022-09-28T00:36:22;0.20;;;0.20;;
41530;SDS011;58990;46.284;13.126;2022-09-28T00:38:48;0.20;;;0.20;;
41530;SDS011;58990;46.284;13.126;2022-09-28T00:41:14;0.30;;;0.30;;
41530;SDS011;58990;46.284;13.126;2022-09-28T00:43:40;0.20;;;0.20;;
41530;SDS011;58990;46.284;13.126;2022-09-28T00:46:10;0.20;;;0.20;;
41530;SDS011;58990;46.284;13.126;2022-09-28T00:48:53;0.30;;;0.30;;
41530;SDS011;58990;46.284;13.126;2022-09-28T00:51:22;0.25;;;0.20;;
41530;SDS011;58990;46.284;13.126;2022-09-28T00:53:49;0.40;;;0.40;;
41530;SDS011;58990;46.284;13.126;2022-09-28T00:56:16;0.17;;;0.17;;
41530;SDS011;58990;46.284;13.126;2022-09-28T00:58:46;0.10;;;0.10;;
41530;SDS011;58990;46.284;13.126;2022-09-28T01:01:15;0.20;;;0.20;;
41530;SDS011;58990;46.284;13.126;2022-09-28T01:03:40;0.90;;;0.50;;
41530;SDS011;58990;46.284;13.126;2022-09-28T01:06:09;0.40;;;0.40;;
41530;SDS011;58990;46.284;13.126;2022-09-28T01:08:39;0.17;;;0.17;;
41530;SDS011;58990;46.284;13.126;2022-09-28T01:11:05;0.93;;;0.20;;
41530;SDS011;58990;46.284;13.126;2022-09-28T01:13:30;0.40;;;0.30;;
41530;SDS011;58990;46.284;13.126;2022-09-28T01:21:39;0.20;;;0.20;;
41530;SDS011;58990;46.284;13.126;2022-09-28T01:29:54;0.20;;;0.20;;
41530;SDS011;58990;46.284;13.126;2022-09-28T01:35:28;0.35;;;0.35;;
41530;SDS011;58990;46.284;13.126;2022-09-28T01:40:50;0.52;;;0.32;;
41530;SDS011;58990;46.284;13.126;2022-09-28T01:43:19;0.20;;;0.20;;
41530;SDS011;58990;46.284;13.126;2022-09-28T01:46:03;0.32;;;0.30;;
41530;SDS011;58990;46.284;13.126;2022-09-28T01:51:21;2.53;;;0.25;;
41530;SDS011;58990;46.284;13.126;2022-09-28T01:53:52;3.85;;;0.30;;
41530;SDS011;58990;46.284;13.126;2022-09-28T01:56:37;0.30;;;0.28;;
41530;SDS011;58990;46.284;13.126;2022-09-28T01:59:11;0.20;;;0.20;;
41530;SDS011;58990;46.284;13.126;2022-09-28T02:04:21;0.10;;;0.10;;
41530;SDS011;58990;46.284;13.126;2022-09-28T02:06:53;0.22;;;0.20;;
41530;SDS011;58990;46.284;13.126;2022-09-28T02:09:27;0.30;;;0.22;;
41530;SDS011;58990;46.284;13.126;2022-09-28T02:12:00;0.20;;;0.20;;
41530;SDS011;58990;46.284;13.126;2022-09-28T02:14:32;0.20;;;0.20;;
41530;SDS011;58990;46.284;13.126;2022-09-28T02:17:02;0.22;;;0.20;;
41530;SDS011;58990;46.284;13.126;2022-09-28T02:19:28;0.20;;;0.20;;
41530;SDS011;58990;46.284;13.126;2022-09-28T02:21:56;0.38;;;0.38;;
41530;SDS011;58990;46.284;13.126;2022-09-28T02:24:33;0.20;;;0.10;;
41530;SDS011;58990;46.284;13.126;2022-09-28T02:27:05;0.40;;;0.40;;
41530;SDS011;58990;46.284;13.126;2022-09-28T02:29:39;0.20;;;0.20;;
41530;SDS011;58990;46.284;13.126;2022-09-28T02:32:04;0.50;;;0.40;;
41530;SDS011;58990;46.284;13.126;2022-09-28T02:34:30;0.52;;;0.28;;
41530;SDS011;58990;46.284;13.126;2022-09-28T02:36:59;0.32;;;0.32;;
41530;SDS011;58990;46.284;13.126;2022-09-28T02:39:26;0.43;;;0.30;;
41530;SDS011;58990;46.284;13.126;2022-09-28T02:41:54;0.30;;;0.30;;
41530;SDS011;58990;46.284;13.126;2022-09-28T02:45:04;0.20;;;0.20;;
41530;SDS011;58990;46.284;13.126;2022-09-28T02:47:45;0.25;;;0.25;;
41530;SDS011;58990;46.284;13.126;2022-09-28T02:53:57;0.10;;;0.10;;
41530;SDS011;58990;46.284;13.126;2022-09-28T02:56:51;0.20;;;0.20;;
41530;SDS011;58990;46.284;13.126;2022-09-28T03:02:30;0.20;;;0.20;;
41530;SDS011;58990;46.284;13.126;2022-09-28T03:05:29;0.32;;;0.32;;
41530;SDS011;58990;46.284;13.126;2022-09-28T03:08:02;0.45;;;0.40;;
41530;SDS011;58990;46.284;13.126;2022-09-28T03:10:43;0.10;;;0.10;;
41530;SDS011;58990;46.284;13.126;2022-09-28T03:13:13;2.22;;;0.50;;
41530;SDS011;58990;46.284;13.126;2022-09-28T03:15:42;0.30;;;0.30;;
41530;SDS011;58990;46.284;13.126;2022-09-28T03:18:08;0.35;;;0.35;;
41530;SDS011;58990;46.284;13.126;2022-09-28T03:20:39;0.20;;;0.20;;
41530;SDS011;58990;46.284;13.126;2022-09-28T03:23:05;0.20;;;0.20;;
41530;SDS011;58990;46.284;13.126;2022-09-28T03:25:30;0.45;;;0.30;;
41530;SDS011;58990;46.284;13.126;2022-09-28T03:27:56;0.30;;;0.20;;
41530;SDS011;58990;46.284;13.126;2022-09-28T03:30:21;0.20;;;0.20;;
41530;SDS011;58990;46.284;13.126;2022-09-28T03:32:46;0.20;;;0.20;;
41530;SDS011;58990;46.284;13.126;2022-09-28T03:35:20;0.10;;;0.10;;
41530;SDS011;58990;46.284;13.126;2022-09-28T03:37:45;0.50;;;0.30;;
41530;SDS011;58990;46.284;13.126;2022-09-28T03:40:11;0.13;;;0.13;;
41530;SDS011;58990;46.284;13.126;2022-09-28T03:42:36;0.28;;;0.28;;
41530;SDS011;58990;46.284;13.126;2022-09-28T03:45:02;0.70;;;0.20;;
41530;SDS011;58990;46.284;13.126;2022-09-28T03:47:27;0.10;;;0.10;;
41530;SDS011;58990;46.284;13.126;2022-09-28T03:49:53;0.30;;;0.30;;
41530;SDS011;58990;46.284;13.126;2022-09-28T03:52:18;0.15;;;0.15;;
41530;SDS011;58990;46.284;13.126;2022-09-28T03:54:43;0.47;;;0.30;;
41530;SDS011;58990;46.284;13.126;2022-09-28T03:57:09;0.30;;;0.28;;
41530;SDS011;58990;46.284;13.126;2022-09-28T03:59:34;0.10;;;0.10;;
41530;SDS011;58990;46.284;13.126;2022-09-28T04:02:01;0.10;;;0.10;;
41530;SDS011;58990;46.284;13.126;2022-09-28T04:04:28;0.20;;;0.20;;
41530;SDS011;58990;46.284;13.126;2022-09-28T04:06:53;0.30;;;0.30;;
41530;SDS011;58990;46.284;13.126;2022-09-28T04:09:19;0.22;;;0.22;;
41530;SDS011;58990;46.284;13.126;2022-09-28T04:11:46;0.30;;;0.30;;
41530;SDS011;58990;46.284;13.126;2022-09-28T04:14:12;0.10;;;0.10;;
41530;SDS011;58990;46.284;13.126;2022-09-28T04:16:37;0.20;;;0.20;;
41530;SDS011;58990;46.284;13.126;2022-09-28T04:19:06;0.10;;;0.10;;
41530;SDS011;58990;46.284;13.126;2022-09-28T04:21:31;0.30;;;0.30;;
41530;SDS011;58990;46.284;13.126;2022-09-28T04:23:56;0.13;;;0.13;;
41530;SDS011;58990;46.284;13.126;2022-09-28T04:26:24;0.15;;;0.15;;
41530;SDS011;58990;46.284;13.126;2022-09-28T04:28:50;0.35;;;0.35;;
41530;SDS011;58990;46.284;13.126;2022-09-28T04:31:37;0.20;;;0.20;;
41530;SDS011;58990;46.284;13.126;2022-09-28T04:34:04;0.20;;;0.20;;
41530;SDS011;58990;46.284;13.126;2022-09-28T04:36:30;0.28;;;0.20;;
41530;SDS011;58990;46.284;13.126;2022-09-28T04:38:56;0.20;;;0.20;;
41530;SDS011;58990;46.284;13.126;2022-09-28T04:41:21;0.25;;;0.25;;
41530;SDS011;58990;46.284;13.126;2022-09-28T04:43:47;0.20;;;0.20;;
41530;SDS011;58990;46.284;13.126;2022-09-28T04:46:13;0.20;;;0.20;;
41530;SDS011;58990;46.284;13.126;2022-09-28T04:48:39;0.45;;;0.30;;
41530;SDS011;58990;46.284;13.126;2022-09-28T04:51:05;0.28;;;0.28;;
41530;SDS011;58990;46.284;13.126;2022-09-28T04:53:31;1.27;;;0.30;;
41530;SDS011;58990;46.284;13.126;2022-09-28T04:55:59;0.22;;;0.22;;
41530;SDS011;58990;46.284;13.126;2022-09-28T04:58:26;0.20;;;0.20;;
41530;SDS011;58990;46.284;13.126;2022-09-28T05:00:56;0.35;;;0.32;;
41530;SDS011;58990;46.284;13.126;2022-09-28T05:03:23;0.52;;;0.20;;
41530;SDS011;58990;46.284;13.126;2022-09-28T05:05:49;0.28;;;0.28;;
41530;SDS011;58990;46.284;13.126;2022-09-28T05:08:15;0.25;;;0.25;;
41530;SDS011;58990;46.284;13.126;2022-09-28T05:10:41;0.32;;;0.32;;
41530;SDS011;58990;46.284;13.126;2022-09-28T05:13:07;0.55;;;0.20;;
41530;SDS011;58990;46.284;13.126;2022-09-28T05:15:37;0.80;;;0.30;;
41530;SDS011;58990;46.284;13.126;2022-09-28T05:18:08;0.10;;;0.10;;
41530;SDS011;58990;46.284;13.126;2022-09-28T05:20:38;0.20;;;0.20;;
41530;SDS011;58990;46.284;13.126;2022-09-28T05:23:23;3.40;;;0.30;;
41530;SDS011;58990;46.284;13.126;2022-09-28T05:26:10;0.32;;;0.30;;
41530;SDS011;58990;46.284;13.126;2022-09-28T05:28:36;0.32;;;0.30;;
41530;SDS011;58990;46.284;13.126;2022-09-28T05:31:02;0.50;;;0.50;;
41530;SDS011;58990;46.284;13.126;2022-09-28T05:33:29;0.30;;;0.30;;
41530;SDS011;58990;46.284;13.126;2022-09-28T05:35:56;0.30;;;0.30;;
41530;SDS011;58990;46.284;13.126;2022-09-28T05:38:22;0.20;;;0.20;;
41530;SDS011;58990;46.284;13.126;2022-09-28T05:40:47;0.20;;;0.20;;
41530;SDS011;58990;46.284;13.126;2022-09-28T05:43:13;1.30;;;0.30;;
41530;SDS011;58990;46.284;13.126;2022-09-28T05:45:38;2.28;;;0.20;;
41530;SDS011;58990;46.284;13.126;2022-09-28T05:48:04;2.60;;;0.25;;
41530;SDS011;58990;46.284;13.126;2022-09-28T05:50:29;0.20;;;0.20;;
41530;SDS011;58990;46.284;13.126;2022-09-28T05:53:02;0.20;;;0.20;;
41530;SDS011;58990;46.284;13.126;2022-09-28T05:55:29;0.25;;;0.22;;
41530;SDS011;58990;46.284;13.126;2022-09-28T05:57:59;0.40;;;0.40;;
41530;SDS011;58990;46.284;13.126;2022-09-28T06:00:25;0.20;;;0.20;;
41530;SDS011;58990;46.284;13.126;2022-09-28T06:02:56;0.20;;;0.20;;
41530;SDS011;58990;46.284;13.126;2022-09-28T06:05:23;0.43;;;0.43;;
41530;SDS011;58990;46.284;13.126;2022-09-28T06:07:50;0.40;;;0.40;;
41530;SDS011;58990;46.284;13.126;2022-09-28T06:10:15;2.45;;;0.40;;
41530;SDS011;58990;46.284;13.126;2022-09-28T06:12:41;0.40;;;0.40;;
41530;SDS011;58990;46.284;13.126;2022-09-28T06:27:43;0.93;;;0.25;;
41530;SDS011;58990;46.284;13.126;2022-09-28T06:30:18;0.30;;;0.30;;
41530;SDS011;58990;46.284;13.126;2022-09-28T06:32:43;0.65;;;0.30;;
41530;SDS011;58990;46.284;13.126;2022-09-28T06:35:09;0.40;;;0.40;;
41530;SDS011;58990;46.284;13.126;2022-09-28T06:37:34;0.17;;;0.17;;
41530;SDS011;58990;46.284;13.126;2022-09-28T06:39:59;0.32;;;0.32;;
41530;SDS011;58990;46.284;13.126;2022-09-28T06:42:25;0.30;;;0.30;;
41530;SDS011;58990;46.284;13.126;2022-09-28T06:44:50;0.30;;;0.30;;
41530;SDS011;58990;46.284;13.126;2022-09-28T06:47:16;0.28;;;0.28;;
41530;SDS011;58990;46.284;13.126;2022-09-28T06:49:41;0.40;;;0.35;;
41530;SDS011;58990;46.284;13.126;2022-09-28T06:52:07;0.20;;;0.20;;
41530;SDS011;58990;46.284;13.126;2022-09-28T06:54:32;0.28;;;0.28;;
41530;SDS011;58990;46.284;13.126;2022-09-28T06:56:57;0.47;;;0.32;;
41530;SDS011;58990;46.284;13.126;2022-09-28T06:59:23;0.20;;;0.20;;
41530;SDS011;58990;46.284;13.126;2022-09-28T07:01:48;0.40;;;0.30;;
41530;SDS011;58990;46.284;13.126;2022-09-28T07:04:14;4.47;;;0.30;;
41530;SDS011;58990;46.284;13.126;2022-09-28T07:06:39;0.20;;;0.20;;
41530;SDS011;58990;46.284;13.126;2022-09-28T07:09:11;0.25;;;0.20;;
41530;SDS011;58990;46.284;13.126;2022-09-28T07:11:37;0.82;;;0.30;;
41530;SDS011;58990;46.284;13.126;2022-09-28T07:14:04;0.20;;;0.20;;
41530;SDS011;58990;46.284;13.126;2022-09-28T07:16:29;0.20;;;0.20;;
41530;SDS011;58990;46.284;13.126;2022-09-28T07:18:55;0.35;;;0.35;;
41530;SDS011;58990;46.284;13.126;2022-09-28T07:21:20;0.28;;;0.28;;
41530;SDS011;58990;46.284;13.126;2022-09-28T07:23:46;0.85;;;0.20;;
41530;SDS011;58990;46.284;13.126;2022-09-28T07:26:12;0.93;;;0.35;;
41530;SDS011;58990;46.284;13.126;2022-09-28T07:28:38;0.30;;;0.28;;
41530;SDS011;58990;46.284;13.126;2022-09-28T07:31:05;0.20;;;0.20;;
41530;SDS011;58990;46.284;13.126;2022-09-28T07:33:31;0.30;;;0.30;;
41530;SDS011;58990;46.284;13.126;2022-09-28T07:35:57;0.25;;;0.25;;
41530;SDS011;58990;46.284;13.126;2022-09-28T07:38:24;0.57;;;0.45;;
41530;SDS011;58990;46.284;13.126;2022-09-28T07:40:50;0.45;;;0.30;;
41530;SDS011;58990;46.284;13.126;2022-09-28T07:43:35;0.52;;;0.20;;
41530;SDS011;58990;46.284;13.126;2022-09-28T07:46:03;0.40;;;0.20;;
41530;SDS011;58990;46.284;13.126;2022-09-28T07:48:29;0.30;;;0.30;;
41530;SDS011;58990;46.284;13.126;2022-09-28T07:51:00;0.20;;;0.20;;
41530;SDS011;58990;46.284;13.126;2022-09-28T07:53:26;0.20;;;0.20;;
41530;SDS011;58990;46.284;13.126;2022-09-28T07:55:53;0.40;;;0.30;;
41530;SDS011;58990;46.284;13.126;2022-09-28T07:58:19;0.30;;;0.30;;
41530;SDS011;58990;46.284;13.126;2022-09-28T08:00:46;0.20;;;0.20;;
41530;SDS011;58990;46.284;13.126;2022-09-28T08:03:13;0.20;;;0.20;;
41530;SDS011;58990;46.284;13.126;2022-09-28T08:05:40;0.20;;;0.20;;
41530;SDS011;58990;46.284;13.126;2022-09-28T08:08:06;0.60;;;0.38;;
41530;SDS011;58990;46.284;13.126;2022-09-28T08:10:32;0.30;;;0.30;;
41530;SDS011;58990;46.284;13.126;2022-09-28T08:12:58;0.30;;;0.30;;
41530;SDS011;58990;46.284;13.126;2022-09-28T08:15:26;0.93;;;0.20;;
41530;SDS011;58990;46.284;13.126;2022-09-28T08:17:52;0.17;;;0.17;;
41530;SDS011;58990;46.284;13.126;2022-09-28T08:20:17;0.47;;;0.40;;
41530;SDS011;58990;46.284;13.126;2022-09-28T08:23:03;0.40;;;0.40;;
41530;SDS011;58990;46.284;13.126;2022-09-28T08:25:29;1.95;;;0.30;;
41530;SDS011;58990;46.284;13.126;2022-09-28T08:27:55;0.10;;;0.10;;
41530;SDS011;58990;46.284;13.126;2022-09-28T08:30:20;0.10;;;0.10;;
41530;SDS011;58990;46.284;13.126;2022-09-28T08:32:46;0.35;;;0.22;;
41530;SDS011;58990;46.284;13.126;2022-09-28T08:35:15;0.20;;;0.20;;
41530;SDS011;58990;46.284;13.126;2022-09-28T08:37:41;0.10;;;0.10;;
41530;SDS011;58990;46.284;13.126;2022-09-28T08:40:12;0.20;;;0.20;;
41530;SDS011;58990;46.284;13.126;2022-09-28T08:42:43;0.28;;;0.28;;
41530;SDS011;58990;46.284;13.126;2022-09-28T08:45:10;0.10;;;0.10;;
41530;SDS011;58990;46.284;13.126;2022-09-28T08:50:27;0.68;;;0.50;;
41530;SDS011;58990;46.284;13.126;2022-09-28T08:52:57;0.20;;;0.20;;
41530;SDS011;58990;46.284;13.126;2022-09-28T08:55:37;0.25;;;0.25;;
41530;SDS011;58990;46.284;13.126;2022-09-28T08:58:08;0.68;;;0.20;;
41530;SDS011;58990;46.284;13.126;2022-09-28T09:00:40;0.22;;;0.22;;
41530;SDS011;58990;46.284;13.126;2022-09-28T09:03:11;0.20;;;0.20;;
41530;SDS011;58990;46.284;13.126;2022-09-28T09:16:56;0.25;;;0.25;;
41530;SDS011;58990;46.284;13.126;2022-09-28T09:19:51;0.40;;;0.40;;
41530;SDS011;58990;46.284;13.126;2022-09-28T09:22:37;0.45;;;0.45;;
41530;SDS011;58990;46.284;13.126;2022-09-28T09:30:49;0.25;;;0.25;;
41530;SDS011;58990;46.284;13.126;2022-09-28T09:46:54;0.30;;;0.30;;
41530;SDS011;58990;46.284;13.126;2022-09-28T10:02:33;0.40;;;0.40;;
41530;SDS011;58990;46.284;13.126;2022-09-28T10:18:18;0.38;;;0.30;;
41530;SDS011;58990;46.284;13.126;2022-09-28T10:20:45;0.30;;;0.30;;
41530;SDS011;58990;46.284;13.126;2022-09-28T10:23:16;0.63;;;0.40;;
41530;SDS011;58990;46.284;13.126;2022-09-28T10:25:47;2.72;;;0.40;;
41530;SDS011;58990;46.284;13.126;2022-09-28T10:28:21;0.30;;;0.30;;
41530;SDS011;58990;46.284;13.126;2022-09-28T10:30:57;1.95;;;0.40;;
41530;SDS011;58990;46.284;13.126;2022-09-28T10:33:28;0.38;;;0.38;;
41530;SDS011;58990;46.284;13.126;2022-09-28T10:35:56;0.75;;;0.68;;
41530;SDS011;58990;46.284;13.126;2022-09-28T10:38:22;0.50;;;0.38;;
41530;SDS011;58990;46.284;13.126;2022-09-28T10:43:33;0.40;;;0.40;;
41530;SDS011;58990;46.284;13.126;2022-09-28T10:46:10;0.40;;;0.40;;
41530;SDS011;58990;46.284;13.126;2022-09-28T10:51:38;0.30;;;0.30;;
41530;SDS011;58990;46.284;13.126;2022-09-28T10:54:17;0.40;;;0.40;;
41530;SDS011;58990;46.284;13.126;2022-09-28T10:56:51;0.30;;;0.30;;
41530;SDS011;58990;46.284;13.126;2022-09-28T10:59:22;0.47;;;0.40;;
41530;SDS011;58990;46.284;13.126;2022-09-28T11:02:12;0.82;;;0.38;;
41530;SDS011;58990;46.284;13.126;2022-09-28T11:04:49;2.13;;;0.38;;
41530;SDS011;58990;46.284;13.126;2022-09-28T11:07:21;0.70;;;0.63;;
41530;SDS011;58990;46.284;13.126;2022-09-28T11:09:50;0.40;;;0.40;;
41530;SDS011;58990;46.284;13.126;2022-09-28T11:12:19;1.55;;;0.60;;
41530;SDS011;58990;46.284;13.126;2022-09-28T11:14:56;0.52;;;0.40;;
41530;SDS011;58990;46.284;13.126;2022-09-28T11:23:16;0.93;;;0.50;;
41530;SDS011;58990;46.284;13.126;2022-09-28T11:26:01;1.67;;;0.57;;
41530;SDS011;58990;46.284;13.126;2022-09-28T11:28:32;1.40;;;0.60;;
41530;SDS011;58990;46.284;13.126;2022-09-28T11:31:01;0.85;;;0.65;;
41530;SDS011;58990;46.284;13.126;2022-09-28T11:38:56;0.40;;;0.40;;
41530;SDS011;58990;46.284;13.126;2022-09-28T11:41:46;1.50;;;0.60;;
41530;SDS011;58990;46.284;13.126;2022-09-28T11:44:44;0.63;;;0.60;;
41530;SDS011;58990;46.284;13.126;2022-09-28T11:47:21;0.75;;;0.70;;
41530;SDS011;58990;46.284;13.126;2022-09-28T11:50:13;1.40;;;0.68;;
41530;SDS011;58990;46.284;13.126;2022-09-28T12:03:51;1.17;;;0.57;;
41530;SDS011;58990;46.284;13.126;2022-09-28T12:06:24;0.80;;;0.50;;
41530;SDS011;58990;46.284;13.126;2022-09-28T12:08:59;2.78;;;0.52;;
41530;SDS011;58990;46.284;13.126;2022-09-28T12:11:34;0.80;;;0.50;;
41530;SDS011;58990;46.284;13.126;2022-09-28T12:14:03;0.40;;;0.40;;
41530;SDS011;58990;46.284;13.126;2022-09-28T12:16:43;0.50;;;0.50;;
41530;SDS011;58990;46.284;13.126;2022-09-28T12:19:15;0.63;;;0.30;;
41530;SDS011;58990;46.284;13.126;2022-09-28T12:21:50;0.45;;;0.43;;
41530;SDS011;58990;46.284;13.126;2022-09-28T12:40:38;0.57;;;0.57;;
41530;SDS011;58990;46.284;13.126;2022-09-28T12:48:53;2.50;;;0.52;;
41530;SDS011;58990;46.284;13.126;2022-09-28T12:51:34;2.75;;;1.48;;
41530;SDS011;58990;46.284;13.126;2022-09-28T12:57:33;0.60;;;0.60;;
41530;SDS011;58990;46.284;13.126;2022-09-28T13:00:09;0.50;;;0.50;;
41530;SDS011;58990;46.284;13.126;2022-09-28T13:02:45;0.98;;;0.68;;
41530;SDS011;58990;46.284;13.126;2022-09-28T13:24:49;0.75;;;0.75;;
41530;SDS011;58990;46.284;13.126;2022-09-28T13:29:51;0.75;;;0.75;;
41530;SDS011;58990;46.284;13.126;2022-09-28T13:32:17;0.80;;;0.70;;
41530;SDS011;58990;46.284;13.126;2022-09-28T13:34:45;0.60;;;0.60;;
41530;SDS011;58990;46.284;13.126;2022-09-28T13:39:54;0.63;;;0.57;;
41530;SDS011;58990;46.284;13.126;2022-09-28T13:42:54;0.80;;;0.80;;
41530;SDS011;58990;46.284;13.126;2022-09-28T13:59:00;2.45;;;1.50;;
41530;SDS011;58990;46.284;13.126;2022-09-28T14:01:50;1.00;;;0.90;;
41530;SDS011;58990;46.284;13.126;2022-09-28T14:10:22;2.15;;;1.25;;
41530;SDS011;58990;46.284;13.126;2022-09-28T14:13:07;2.53;;;1.35;;
41530;SDS011;58990;46.284;13.126;2022-09-28T14:18:16;3.85;;;1.50;;
41530;SDS011;58990;46.284;13.126;2022-09-28T14:20:52;1.90;;;1.50;;
41530;SDS011;58990;46.284;13.126;2022-09-28T14:23:42;3.03;;;1.73;;
41530;SDS011;58990;46.284;13.126;2022-09-28T14:31:41;2.90;;;1.90;;
41530;SDS011;58990;46.284;13.126;2022-09-28T14:34:20;2.22;;;1.73;;
41530;SDS011;58990;46.284;13.126;2022-09-28T14:36:48;2.83;;;2.00;;
41530;SDS011;58990;46.284;13.126;2022-09-28T14:39:34;2.70;;;1.67;;
41530;SDS011;58990;46.284;13.126;2022-09-28T14:42:23;4.43;;;1.95;;
41530;SDS011;58990;46.284;13.126;2022-09-28T14:47:41;2.10;;;1.90;;
41530;SDS011;58990;46.284;13.126;2022-09-28T14:53:02;2.42;;;1.63;;
41530;SDS011;58990;46.284;13.126;2022-09-28T14:55:33;2.90;;;1.58;;
41530;SDS011;58990;46.284;13.126;2022-09-28T14:58:07;2.38;;;1.70;;
41530;SDS011;58990;46.284;13.126;2022-09-28T15:00:42;3.10;;;1.50;;
41530;SDS011;58990;46.284;13.126;2022-09-28T15:03:08;1.75;;;1.55;;
41530;SDS011;58990;46.284;13.126;2022-09-28T15:05:43;1.55;;;1.30;;
41530;SDS011;58990;46.284;13.126;2022-09-28T15:08:13;1.95;;;1.60;;
41530;SDS011;58990;46.284;13.126;2022-09-28T15:10:42;3.72;;;1.73;;
41530;SDS011;58990;46.284;13.126;2022-09-28T15:15:54;2.38;;;1.50;;
41530;SDS011;58990;46.284;13.126;2022-09-28T15:18:34;1.88;;;1.55;;
41530;SDS011;58990;46.284;13.126;2022-09-28T15:21:30;3.50;;;1.55;;
41530;SDS011;58990;46.284;13.126;2022-09-28T15:23:58;2.72;;;1.52;;
41530;SDS011;58990;46.284;13.126;2022-09-28T15:26:24;2.10;;;1.55;;
41530;SDS011;58990;46.284;13.126;2022-09-28T15:28:53;2.63;;;1.80;;
41530;SDS011;58990;46.284;13.126;2022-09-28T15:31:20;5.93;;;2.97;;
41530;SDS011;58990;46.284;13.126;2022-09-28T15:33:47;6.72;;;3.55;;
41530;SDS011;58990;46.284;13.126;2022-09-28T15:36:34;4.28;;;2.10;;
41530;SDS011;58990;46.284;13.126;2022-09-28T15:39:11;2.90;;;2.08;;
41530;SDS011;58990;46.284;13.126;2022-09-28T15:41:43;3.28;;;2.42;;
41530;SDS011;58990;46.284;13.126;2022-09-28T15:46:52;3.35;;;2.20;;
41530;SDS011;58990;46.284;13.126;2022-09-28T15:49:52;5.43;;;2.17;;
41530;SDS011;58990;46.284;13.126;2022-09-28T15:52:39;6.55;;;2.00;;
41530;SDS011;58990;46.284;13.126;2022-09-28T16:01:16;6.18;;;2.80;;
41530;SDS011;58990;46.284;13.126;2022-09-28T16:03:53;5.00;;;2.80;;
41530;SDS011;58990;46.284;13.126;2022-09-28T16:06:19;4.18;;;2.65;;
41530;SDS011;58990;46.284;13.126;2022-09-28T16:08:45;7.18;;;3.00;;
41530;SDS011;58990;46.284;13.126;2022-09-28T16:11:29;4.95;;;2.70;;
41530;SDS011;58990;46.284;13.126;2022-09-28T16:16:44;7.07;;;3.58;;
41530;SDS011;58990;46.284;13.126;2022-09-28T16:19:22;3.88;;;2.67;;
41530;SDS011;58990;46.284;13.126;2022-09-28T16:21:52;5.53;;;3.40;;
41530;SDS011;58990;46.284;13.126;2022-09-28T16:24:22;8.15;;;3.72;;
41530;SDS011;58990;46.284;13.126;2022-09-28T16:27:06;5.13;;;3.10;;
41530;SDS011;58990;46.284;13.126;2022-09-28T16:30:01;12.90;;;5.72;;
41530;SDS011;58990;46.284;13.126;2022-09-28T16:38:19;6.30;;;3.42;;
41530;SDS011;58990;46.284;13.126;2022-09-28T16:40:45;9.07;;;3.40;;
41530;SDS011;58990;46.284;13.126;2022-09-28T16:43:22;7.18;;;3.35;;
41530;SDS011;58990;46.284;13.126;2022-09-28T16:45:57;10.02;;;3.63;;
41530;SDS011;58990;46.284;13.126;2022-09-28T16:48:28;6.75;;;3.08;;
41530;SDS011;58990;46.284;13.126;2022-09-28T16:50:55;9.20;;;3.70;;
41530;SDS011;58990;46.284;13.126;2022-09-28T16:53:22;7.32;;;2.83;;
41530;SDS011;58990;46.284;13.126;2022-09-28T16:56:08;9.07;;;3.45;;
41530;SDS011;58990;46.284;13.126;2022-09-28T16:58:34;5.63;;;2.47;;
41530;SDS011;58990;46.284;13.126;2022-09-28T17:01:00;6.10;;;2.00;;
41530;SDS011;58990;46.284;13.126;2022-09-28T17:03:26;6.55;;;1.77;;
41530;SDS011;58990;46.284;13.126;2022-09-28T17:05:52;4.10;;;1.70;;
41530;SDS011;58990;46.284;13.126;2022-09-28T17:08:20;5.68;;;2.03;;
41530;SDS011;58990;46.284;13.126;2022-09-28T17:10:48;6.85;;;1.83;;
41530;SDS011;58990;46.284;13.126;2022-09-28T17:13:23;3.45;;;1.42;;
41530;SDS011;58990;46.284;13.126;2022-09-28T17:16:18;6.88;;;2.65;;
41530;SDS011;58990;46.284;13.126;2022-09-28T17:18:45;5.40;;;3.22;;
41530;SDS011;58990;46.284;13.126;2022-09-28T17:21:12;8.98;;;4.43;;
41530;SDS011;58990;46.284;13.126;2022-09-28T17:23:40;6.80;;;3.40;;
41530;SDS011;58990;46.284;13.126;2022-09-28T17:26:06;12.50;;;3.25;;
41530;SDS011;58990;46.284;13.126;2022-09-28T17:28:39;5.53;;;2.60;;
41530;SDS011;58990;46.284;13.126;2022-09-28T17:31:05;9.52;;;3.22;;
41530;SDS011;58990;46.284;13.126;2022-09-28T17:33:30;7.60;;;3.38;;
41530;SDS011;58990;46.284;13.126;2022-09-28T17:35:57;9.88;;;4.10;;
41530;SDS011;58990;46.284;13.126;2022-09-28T17:38:24;10.00;;;4.72;;
41530;SDS011;58990;46.284;13.126;2022-09-28T17:40:50;14.63;;;5.60;;
41530;SDS011;58990;46.284;13.126;2022-09-28T17:43:15;12.95;;;5.55;;
41530;SDS011;58990;46.284;13.126;2022-09-28T17:45:40;16.95;;;5.65;;
41530;SDS011;58990;46.284;13.126;2022-09-28T17:48:11;12.02;;;4.88;;
41530;SDS011;58990;46.284;13.126;2022-09-28T17:50:39;7.50;;;4.38;;
41530;SDS011;58990;46.284;13.126;2022-09-28T17:53:06;10.63;;;5.68;;
41530;SDS011;58990;46.284;13.126;2022-09-28T17:55:33;9.05;;;5.18;;
41530;SDS011;58990;46.284;13.126;2022-09-28T17:58:01;13.65;;;5.90;;
41530;SDS011;58990;46.284;13.126;2022-09-28T18:00:36;18.27;;;8.15;;
41530;SDS011;58990;46.284;13.126;2022-09-28T18:03:01;22.80;;;12.43;;
41530;SDS011;58990;46.284;13.126;2022-09-28T18:05:26;16.25;;;6.63;;
41530;SDS011;58990;46.284;13.126;2022-09-28T18:07:53;8.20;;;4.32;;
41530;SDS011;58990;46.284;13.126;2022-09-28T18:10:21;9.32;;;4.10;;
41530;SDS011;58990;46.284;13.126;2022-09-28T18:12:49;7.70;;;4.85;;
41530;SDS011;58990;46.284;13.126;2022-09-28T18:15:15;9.13;;;5.22;;
41530;SDS011;58990;46.284;13.126;2022-09-28T18:17:42;9.93;;;4.28;;
41530;SDS011;58990;46.284;13.126;2022-09-28T18:20:08;8.48;;;4.07;;
41530;SDS011;58990;46.284;13.126;2022-09-28T18:22:35;5.35;;;2.70;;
41530;SDS011;58990;46.284;13.126;2022-09-28T18:25:00;5.00;;;2.20;;
41530;SDS011;58990;46.284;13.126;2022-09-28T18:27:27;7.88;;;2.00;;
41530;SDS011;58990;46.284;13.126;2022-09-28T18:29:54;3.45;;;2.00;;
41530;SDS011;58990;46.284;13.126;2022-09-28T18:32:19;3.10;;;2.08;;
41530;SDS011;58990;46.284;13.126;2022-09-28T18:34:45;6.95;;;2.22;;
41530;SDS011;58990;46.284;13.126;2022-09-28T18:37:10;7.95;;;3.00;;
41530;SDS011;58990;46.284;13.126;2022-09-28T18:39:35;7.40;;;2.53;;
41530;SDS011;58990;46.284;13.126;2022-09-28T18:42:01;6.88;;;2.20;;
41530;SDS011;58990;46.284;13.126;2022-09-28T18:44:27;2.97;;;1.80;;
41530;SDS011;58990;46.284;13.126;2022-09-28T18:46:52;4.32;;;2.47;;
41530;SDS011;58990;46.284;13.126;2022-09-28T18:49:18;2.05;;;1.63;;
41530;SDS011;58990;46.284;13.126;2022-09-28T18:51:44;2.78;;;1.70;;